createdAt,value
2023-03-04T00:00:37.936Z,21.93
2023-03-04T00:03:21.821Z,24.90
2023-03-04T00:06:07.751Z,24.03
2023-03-04T00:08:51.563Z,25.77
2023-03-04T00:11:35.662Z,25.63
2023-03-04T00:14:19.425Z,22.03
2023-03-04T00:17:04.511Z,22.67
2023-03-04T00:19:48.643Z,19.73
2023-03-04T00:22:33.748Z,20.20
2023-03-04T00:25:17.546Z,20.13
2023-03-04T00:28:01.320Z,18.83
2023-03-04T00:30:45.099Z,19.90
2023-03-04T00:33:28.905Z,19.87
2023-03-04T00:36:12.720Z,21.07
2023-03-04T00:38:57.866Z,22.50
2023-03-04T00:41:42.125Z,22.23
2023-03-04T00:44:25.900Z,23.40
2023-03-04T00:47:09.724Z,24.53
2023-03-04T00:49:53.464Z,22.37
2023-03-04T00:52:37.449Z,25.27
2023-03-04T00:55:22.589Z,24.00
2023-03-04T00:58:06.344Z,23.90
2023-03-04T01:00:50.131Z,24.03
2023-03-04T01:03:35.563Z,21.23
2023-03-04T01:06:19.294Z,22.47
2023-03-04T01:09:03.136Z,22.07
2023-03-04T01:11:48.551Z,22.73
2023-03-04T01:14:32.315Z,22.37
2023-03-04T01:17:16.090Z,23.50
2023-03-04T01:19:59.911Z,24.30
2023-03-04T01:22:43.662Z,24.70
2023-03-04T01:25:27.518Z,26.27
2023-03-04T01:28:12.750Z,23.13
2023-03-04T01:30:58.277Z,24.50
2023-03-04T01:33:42.031Z,25.27
2023-03-04T01:36:27.140Z,23.40
2023-03-04T01:39:10.893Z,24.17
2023-03-04T01:41:54.639Z,24.73
2023-03-04T01:44:39.841Z,24.20
2023-03-04T01:47:27.322Z,24.83
2023-03-04T01:50:18.832Z,24.13
2023-03-04T01:53:02.920Z,24.03
2023-03-04T01:55:46.910Z,24.23
2023-03-04T01:58:32.167Z,24.10
2023-03-04T02:01:17.261Z,23.13
2023-03-04T02:04:01.599Z,23.27
2023-03-04T02:06:47.722Z,23.33
2023-03-04T02:09:33.199Z,22.40
2023-03-04T02:12:18.742Z,22.20
2023-03-04T02:15:02.585Z,23.57
2023-03-04T02:17:51.287Z,24.07
2023-03-04T02:20:45.064Z,24.40
2023-03-04T02:23:34.289Z,25.27
2023-03-04T02:26:21.218Z,25.57
2023-03-04T02:29:07.775Z,24.53
2023-03-04T02:31:53.155Z,24.67
2023-03-04T02:34:37.838Z,24.30
2023-03-04T02:37:21.812Z,24.60
2023-03-04T02:40:15.026Z,24.80
2023-03-04T02:43:02.161Z,24.37
2023-03-04T02:45:47.652Z,24.67
2023-03-04T02:48:31.727Z,23.60
2023-03-04T02:51:15.545Z,23.67
2023-03-04T02:53:59.559Z,24.83
2023-03-04T02:56:46.789Z,24.37
2023-03-04T02:59:32.982Z,25.03
2023-03-04T03:02:16.768Z,24.70
2023-03-04T03:05:00.608Z,23.77
2023-03-04T03:07:44.825Z,25.20
2023-03-04T03:10:29.650Z,26.03
2023-03-04T03:13:13.632Z,25.50
2023-03-04T03:15:59.246Z,27.47
2023-03-04T03:18:43.093Z,27.87
2023-03-04T03:21:26.870Z,26.90
2023-03-04T03:24:10.730Z,27.47
2023-03-04T03:26:54.581Z,26.13
2023-03-04T03:29:38.554Z,26.40
2023-03-04T03:32:26.327Z,26.50
2023-03-04T03:35:10.473Z,25.93
2023-03-04T03:37:54.220Z,26.57
2023-03-04T03:40:38.144Z,26.13
2023-03-04T03:43:21.869Z,26.90
2023-03-04T03:46:06.018Z,27.53
2023-03-04T03:48:51.241Z,26.70
2023-03-04T03:51:35.112Z,27.20
2023-03-04T03:54:18.894Z,27.83
2023-03-04T03:57:02.647Z,26.97
2023-03-04T03:59:46.469Z,26.83
2023-03-04T04:02:30.372Z,27.23
2023-03-04T04:05:16.108Z,27.33
2023-03-04T04:07:59.894Z,27.40
2023-03-04T04:10:44.572Z,28.43
2023-03-04T04:13:28.386Z,26.90
2023-03-04T04:16:12.889Z,28.10
2023-03-04T04:18:56.761Z,27.10
2023-03-04T04:21:41.837Z,27.07
2023-03-04T04:24:25.741Z,28.53
2023-03-04T04:27:09.657Z,27.70
2023-03-04T04:29:53.471Z,28.10
2023-03-04T04:32:37.259Z,27.27
2023-03-04T04:35:21.290Z,26.03
2023-03-04T04:38:06.614Z,27.93
2023-03-04T04:40:50.366Z,27.63
2023-03-04T04:43:34.206Z,27.70
2023-03-04T04:46:19.111Z,27.80
2023-03-04T04:49:03.377Z,27.37
2023-03-04T04:51:47.823Z,26.03
2023-03-04T04:54:33.334Z,25.30
2023-03-04T04:57:17.270Z,28.13
2023-03-04T05:00:01.137Z,29.93
2023-03-04T05:02:47.452Z,29.07
2023-03-04T05:05:31.322Z,31.60
2023-03-04T05:08:15.123Z,32.63
2023-03-04T05:11:00.387Z,32.50
2023-03-04T05:13:44.436Z,31.60
2023-03-04T05:16:28.299Z,33.33
2023-03-04T05:19:12.375Z,31.63
2023-03-04T05:21:56.228Z,30.43
2023-03-04T05:24:40.023Z,30.73
2023-03-04T05:27:25.282Z,31.33
2023-03-04T05:30:10.625Z,32.53
2023-03-04T05:32:54.679Z,32.87
2023-03-04T05:35:39.513Z,33.47
2023-03-04T05:38:24.144Z,31.07
2023-03-04T05:41:08.819Z,30.67
2023-03-04T05:43:54.029Z,31.43
2023-03-04T05:46:38.021Z,32.37
2023-03-04T05:49:21.971Z,33.00
2023-03-04T05:52:05.638Z,31.77
2023-03-04T05:54:49.399Z,32.17
2023-03-04T05:57:33.412Z,32.70
2023-03-04T06:00:19.153Z,31.73
2023-03-04T06:03:03.021Z,33.00
2023-03-04T06:05:47.115Z,31.67
2023-03-04T06:08:30.976Z,33.07
2023-03-04T06:11:14.873Z,31.93
2023-03-04T06:13:58.869Z,33.30
2023-03-04T06:16:44.122Z,32.90
2023-03-04T06:19:27.891Z,30.53
2023-03-04T06:22:12.413Z,31.10
2023-03-04T06:24:56.593Z,30.77
2023-03-04T06:27:40.616Z,35.27
2023-03-04T06:30:24.840Z,33.23
2023-03-04T06:33:10.242Z,32.20
2023-03-04T06:35:56.466Z,31.73
2023-03-04T06:38:40.492Z,31.43
2023-03-04T06:41:24.333Z,30.70
2023-03-04T06:44:08.493Z,28.73
2023-03-04T06:46:52.517Z,29.40
2023-03-04T06:49:37.779Z,29.13
2023-03-04T06:52:21.619Z,28.67
2023-03-04T06:55:06.584Z,30.77
2023-03-04T06:57:50.360Z,27.93
2023-03-04T07:00:34.358Z,27.83
2023-03-04T07:03:18.274Z,28.57
2023-03-04T07:06:03.466Z,27.37
2023-03-04T07:08:48.008Z,28.97
2023-03-04T07:11:31.918Z,28.37
2023-03-04T07:14:15.861Z,27.40
2023-03-04T07:16:59.894Z,30.17
2023-03-04T07:19:44.787Z,27.03
2023-03-04T07:22:30.046Z,26.43
2023-03-04T07:25:13.854Z,25.87
2023-03-04T07:27:57.692Z,25.70
2023-03-04T07:30:41.541Z,26.77
2023-03-04T07:33:25.319Z,25.97
2023-03-04T07:36:09.349Z,24.57
2023-03-04T07:38:55.946Z,24.53
2023-03-04T07:41:39.885Z,24.97
2023-03-04T07:44:23.630Z,23.97
2023-03-04T07:47:07.501Z,23.47
2023-03-04T07:49:51.621Z,23.07
2023-03-04T07:52:38.999Z,24.13
2023-03-04T07:55:24.222Z,21.10
2023-03-04T07:58:07.998Z,22.80
2023-03-04T08:00:51.759Z,21.83
2023-03-04T08:03:35.748Z,22.83
2023-03-04T08:06:21.603Z,22.73
2023-03-04T08:09:07.748Z,22.90
2023-03-04T08:11:52.962Z,22.27
2023-03-04T08:14:36.833Z,21.97
2023-03-04T08:17:20.606Z,22.63
2023-03-04T08:20:04.817Z,23.50
2023-03-04T08:22:48.664Z,22.57
2023-03-04T08:25:32.548Z,22.27
2023-03-04T08:28:18.556Z,21.50
2023-03-04T08:31:02.366Z,21.17
2023-03-04T08:33:46.838Z,22.60
2023-03-04T08:36:30.722Z,23.03
2023-03-04T08:39:16.716Z,22.00
2023-03-04T08:42:00.622Z,26.13
2023-03-04T08:44:45.902Z,27.77
2023-03-04T08:47:29.755Z,22.90
2023-03-04T08:50:13.691Z,22.70
2023-03-04T08:52:57.604Z,22.37
2023-03-04T08:55:42.264Z,25.60
2023-03-04T08:58:26.226Z,21.50
2023-03-04T09:01:13.383Z,22.37
2023-03-04T09:03:57.382Z,25.70
2023-03-04T09:06:41.552Z,24.33
2023-03-04T09:09:25.448Z,21.57
2023-03-04T09:12:09.342Z,21.90
2023-03-04T09:15:08.328Z,23.40
2023-03-04T09:17:55.276Z,20.60
2023-03-04T09:20:39.109Z,20.33
2023-03-04T09:23:23.443Z,19.27
2023-03-04T09:26:16.485Z,20.50
2023-03-04T09:29:02.392Z,18.87
2023-03-04T09:31:46.654Z,19.87
2023-03-04T09:34:32.010Z,19.17
2023-03-04T09:37:15.866Z,18.23
2023-03-04T09:39:59.614Z,18.13
2023-03-04T09:42:49.093Z,17.93
2023-03-04T09:45:39.375Z,15.83
2023-03-04T09:48:26.233Z,16.57
2023-03-04T09:51:21.420Z,15.27
2023-03-04T09:54:09.195Z,16.03
2023-03-04T09:56:57.287Z,14.17
2023-03-04T09:59:47.296Z,13.23
2023-03-04T10:02:43.336Z,12.50
2023-03-04T10:05:28.883Z,11.97
2023-03-04T10:08:37.035Z,12.83
2023-03-04T10:11:27.769Z,12.40
2023-03-04T10:14:33.833Z,11.23
2023-03-04T10:17:23.779Z,8.77
2023-03-04T10:20:13.818Z,10.40
2023-03-04T10:23:00.027Z,10.37
2023-03-04T10:25:51.803Z,10.30
2023-03-04T10:28:36.707Z,11.57
2023-03-04T10:31:28.684Z,10.90
2023-03-04T10:34:13.699Z,11.33
2023-03-04T10:37:00.653Z,11.53
2023-03-04T10:39:46.735Z,16.17
2023-03-04T10:42:37.628Z,13.63
2023-03-04T10:45:23.668Z,19.73
2023-03-04T10:48:08.037Z,18.73
2023-03-04T10:50:51.985Z,21.17
2023-03-04T10:53:40.696Z,19.23
2023-03-04T10:56:34.971Z,18.50
2023-03-04T10:59:41.996Z,17.37
2023-03-04T11:02:28.164Z,17.80
2023-03-04T11:05:19.646Z,16.70
2023-03-04T11:08:03.475Z,16.03
2023-03-04T11:10:47.656Z,15.57
2023-03-04T11:13:32.802Z,14.53
2023-03-04T11:16:27.925Z,14.03
2023-03-04T11:19:17.920Z,14.20
2023-03-04T11:22:02.911Z,13.90
2023-03-04T11:24:52.597Z,13.57
2023-03-04T11:27:43.234Z,14.17
2023-03-04T11:30:42.785Z,13.37
2023-03-04T11:33:37.329Z,11.90
2023-03-04T11:36:32.690Z,12.03
2023-03-04T11:39:23.200Z,11.50
2023-03-04T11:42:14.601Z,12.07
2023-03-04T11:44:58.812Z,11.63
2023-03-04T11:48:04.503Z,12.47
2023-03-04T11:50:54.799Z,10.87
2023-03-04T11:53:50.843Z,11.60
2023-03-04T11:56:40.899Z,11.73
2023-03-04T11:59:52.268Z,11.67
2023-03-04T12:02:44.747Z,11.40
2023-03-04T12:05:36.416Z,10.07
2023-03-04T12:08:44.490Z,9.67
2023-03-04T12:11:40.322Z,9.80
2023-03-04T12:14:30.758Z,9.23
2023-03-04T12:17:40.468Z,9.70
2023-03-04T12:20:38.435Z,10.57
2023-03-04T12:23:34.915Z,10.07
2023-03-04T12:26:34.435Z,9.87
2023-03-04T12:29:27.941Z,9.40
2023-03-04T12:32:19.535Z,8.40
2023-03-04T12:35:21.494Z,8.50
2023-03-04T12:38:20.890Z,8.40
2023-03-04T12:41:21.384Z,8.50
2023-03-04T12:44:17.032Z,9.43
2023-03-04T12:47:18.614Z,7.80
2023-03-04T12:50:22.406Z,6.90
2023-03-04T12:53:17.529Z,7.37
2023-03-04T12:56:03.623Z,8.47
2023-03-04T12:58:47.646Z,7.53
2023-03-04T13:01:40.096Z,6.90
2023-03-04T13:04:29.751Z,8.70
2023-03-04T13:07:20.218Z,7.93
2023-03-04T13:10:11.906Z,7.97
2023-03-04T13:12:58.186Z,8.83
2023-03-04T13:15:42.207Z,8.83
2023-03-04T13:18:35.599Z,7.20
2023-03-04T13:21:25.456Z,7.73
2023-03-04T13:24:46.019Z,9.57
2023-03-04T13:27:51.913Z,7.70
2023-03-04T13:31:04.746Z,8.40
2023-03-04T13:34:06.529Z,8.93
2023-03-04T13:36:57.290Z,8.73
2023-03-04T13:39:41.238Z,10.20
2023-03-04T13:42:42.988Z,9.67
2023-03-04T13:45:38.962Z,8.53
2023-03-04T13:48:28.590Z,8.00
2023-03-04T13:51:28.932Z,8.40
2023-03-04T13:54:24.107Z,6.33
2023-03-04T13:57:20.654Z,6.60
2023-03-04T14:00:06.842Z,6.87
2023-03-04T14:02:52.470Z,6.83
2023-03-04T14:05:36.421Z,8.00
2023-03-04T14:08:22.439Z,7.50
2023-03-04T14:11:06.519Z,7.10
2023-03-04T14:13:50.770Z,7.43
2023-03-04T14:16:40.964Z,8.97
2023-03-04T14:19:29.654Z,9.70
2023-03-04T14:22:23.149Z,11.90
2023-03-04T14:25:22.303Z,8.90
2023-03-04T14:28:11.767Z,8.73
2023-03-04T14:30:58.388Z,9.83
2023-03-04T14:33:47.127Z,8.77
2023-03-04T14:36:33.912Z,8.50
2023-03-04T14:39:20.098Z,10.33
2023-03-04T14:42:11.566Z,10.47
2023-03-04T14:44:59.800Z,10.10
2023-03-04T14:47:47.645Z,12.40
2023-03-04T14:50:31.651Z,15.70
2023-03-04T14:53:17.977Z,11.10
2023-03-04T14:56:04.669Z,8.47
2023-03-04T14:58:57.161Z,8.13
2023-03-04T15:01:40.980Z,7.17
2023-03-04T15:04:24.958Z,7.47
2023-03-04T15:07:19.844Z,15.87
2023-03-04T15:10:08.360Z,20.00
2023-03-04T15:12:54.398Z,15.87
2023-03-04T15:15:42.134Z,27.03
2023-03-04T15:18:27.308Z,19.73
2023-03-04T15:21:36.933Z,22.57
2023-03-04T15:24:21.705Z,35.23
2023-03-04T15:27:08.316Z,23.03
2023-03-04T15:29:56.060Z,18.90
2023-03-04T15:32:41.416Z,20.47
2023-03-04T15:35:26.566Z,16.70
2023-03-04T15:38:13.954Z,17.30
2023-03-04T15:40:58.510Z,16.50
2023-03-04T15:43:42.468Z,18.23
2023-03-04T15:46:26.378Z,18.77
2023-03-04T15:49:12.048Z,18.40
2023-03-04T15:51:55.774Z,17.70
2023-03-04T15:54:39.582Z,18.77
2023-03-04T15:57:26.073Z,15.50
2023-03-04T16:00:12.726Z,17.63
2023-03-04T16:02:56.557Z,14.70
2023-03-04T16:05:42.105Z,50.37
2023-03-04T16:08:26.358Z,19.77
2023-03-04T16:11:16.550Z,14.47
2023-03-04T16:14:00.326Z,14.07
2023-03-04T16:16:46.612Z,23.27
2023-03-04T16:19:30.530Z,16.83
2023-03-04T16:22:17.640Z,16.80
2023-03-04T16:25:01.463Z,20.80
2023-03-04T16:27:45.998Z,19.07
2023-03-04T16:30:29.760Z,17.93
2023-03-04T16:33:15.166Z,19.60
2023-03-04T16:35:59.360Z,25.73
2023-03-04T16:38:44.753Z,28.43
2023-03-04T16:41:30.779Z,19.73
2023-03-04T16:44:16.078Z,30.23
2023-03-04T16:46:59.896Z,27.43
2023-03-04T16:49:44.113Z,37.77
2023-03-04T16:52:32.050Z,18.53
2023-03-04T16:55:21.541Z,18.77
2023-03-04T16:58:08.007Z,31.77
2023-03-04T17:00:52.152Z,27.57
2023-03-04T17:03:36.055Z,32.90
2023-03-04T17:06:20.855Z,28.17
2023-03-04T17:09:04.791Z,21.00
2023-03-04T17:11:50.140Z,21.07
2023-03-04T17:14:34.007Z,25.17
2023-03-04T17:17:18.569Z,18.77
2023-03-04T17:20:06.150Z,23.63
2023-03-04T17:22:50.473Z,31.37
2023-03-04T17:25:34.557Z,70.40
2023-03-04T17:28:19.656Z,36.03
2023-03-04T17:31:09.367Z,30.57
2023-03-04T17:33:53.238Z,18.00
2023-03-04T17:36:37.530Z,27.40
2023-03-04T17:39:21.481Z,24.00
2023-03-04T17:42:07.099Z,28.80
2023-03-04T17:44:52.498Z,29.77
2023-03-04T17:47:36.635Z,29.20
2023-03-04T17:50:21.242Z,27.33
2023-03-04T17:53:05.234Z,22.47
2023-03-04T17:55:52.589Z,21.70
2023-03-04T17:58:37.838Z,21.10
2023-03-04T18:01:23.633Z,28.47
2023-03-04T18:04:07.734Z,27.27
2023-03-04T18:06:51.540Z,25.07
2023-03-04T18:09:35.677Z,24.77
2023-03-04T18:12:19.559Z,24.30
2023-03-04T18:15:03.376Z,20.70
2023-03-04T18:17:50.337Z,19.90
2023-03-04T18:20:34.575Z,19.37
2023-03-04T18:23:18.596Z,15.67
2023-03-04T18:26:04.509Z,16.97
2023-03-04T18:28:48.390Z,26.43
2023-03-04T18:31:33.074Z,17.13
2023-03-04T18:34:18.269Z,17.47
2023-03-04T18:37:02.129Z,22.73
2023-03-04T18:39:45.944Z,16.53
2023-03-04T18:42:29.811Z,21.90
2023-03-04T18:45:15.068Z,18.93
2023-03-04T18:48:00.736Z,20.33
2023-03-04T18:50:46.067Z,23.00
2023-03-04T18:53:30.979Z,27.27
2023-03-04T18:56:19.619Z,29.60
2023-03-04T18:59:03.706Z,21.13
2023-03-04T19:01:48.517Z,27.87
2023-03-04T19:04:32.860Z,22.73
2023-03-04T19:07:18.051Z,28.60
2023-03-04T19:10:02.051Z,18.23
2023-03-04T19:12:47.503Z,19.50
2023-03-04T19:15:31.388Z,20.13
2023-03-04T19:18:15.172Z,20.63
2023-03-04T19:21:02.986Z,20.57
2023-03-04T19:23:49.504Z,18.93
2023-03-04T19:26:33.392Z,20.80
2023-03-04T19:29:17.309Z,19.57
2023-03-04T19:32:01.264Z,20.30
2023-03-04T19:34:45.332Z,20.20
2023-03-04T19:37:29.370Z,23.60
2023-03-04T19:40:15.158Z,19.40
2023-03-04T19:42:59.102Z,20.10
2023-03-04T19:45:43.237Z,20.73
2023-03-04T19:48:27.076Z,19.63
2023-03-04T19:51:18.464Z,19.00
2023-03-04T19:54:02.792Z,18.80
2023-03-04T19:56:48.216Z,19.27
2023-03-04T19:59:32.167Z,18.23
2023-03-04T20:02:15.999Z,18.97
2023-03-04T20:05:00.328Z,21.13
2023-03-04T20:07:45.061Z,20.67
2023-03-04T20:10:32.957Z,23.67
2023-03-04T20:13:18.270Z,23.63
2023-03-04T20:16:02.200Z,21.00
2023-03-04T20:18:46.101Z,19.40
2023-03-04T20:21:32.701Z,21.97
2023-03-04T20:24:18.557Z,21.63
2023-03-04T20:27:02.454Z,22.43
2023-03-04T20:29:49.090Z,21.17
2023-03-04T20:32:33.102Z,20.27
2023-03-04T20:35:17.124Z,21.93
2023-03-04T20:38:01.083Z,20.07
2023-03-04T20:40:44.834Z,21.60
2023-03-04T20:43:29.705Z,28.80
2023-03-04T20:46:29.960Z,22.77
2023-03-04T20:49:16.288Z,26.63
2023-03-04T20:52:06.237Z,23.93
2023-03-04T20:54:50.121Z,27.13
2023-03-04T20:57:34.044Z,30.20
2023-03-04T21:00:18.383Z,34.40
2023-03-04T21:03:03.666Z,32.30
2023-03-04T21:05:47.456Z,37.50
2023-03-04T21:08:31.780Z,41.07
2023-03-04T21:11:17.863Z,39.30
2023-03-04T21:14:01.854Z,41.10
2023-03-04T21:16:45.645Z,40.63
2023-03-04T21:19:33.161Z,36.73
2023-03-04T21:22:20.184Z,35.60
2023-03-04T21:25:03.926Z,39.67
2023-03-04T21:27:47.718Z,46.23
2023-03-04T21:30:31.529Z,42.50
2023-03-04T21:33:19.256Z,46.10
2023-03-04T21:36:04.942Z,41.67
2023-03-04T21:38:48.891Z,38.60
2023-03-04T21:41:32.979Z,34.03
2023-03-04T21:44:27.954Z,28.43
2023-03-04T21:47:12.903Z,30.73
2023-03-04T21:49:56.946Z,33.83
2023-03-04T21:52:42.709Z,30.17
2023-03-04T21:55:26.766Z,29.90
2023-03-04T21:58:10.700Z,29.57
2023-03-04T22:00:54.922Z,28.53
2023-03-04T22:03:39.050Z,28.17
2023-03-04T22:06:24.554Z,25.33
2023-03-04T22:09:09.933Z,24.33
2023-03-04T22:11:53.789Z,26.17
2023-03-04T22:14:37.912Z,25.33
2023-03-04T22:17:22.033Z,25.13
2023-03-04T22:20:07.218Z,25.37
2023-03-04T22:22:51.130Z,22.67
2023-03-04T22:25:38.849Z,27.80
2023-03-04T22:28:25.164Z,28.87
2023-03-04T22:31:16.955Z,26.50
2023-03-04T22:34:02.704Z,21.47
2023-03-04T22:36:48.880Z,20.43
2023-03-04T22:39:32.680Z,20.90
2023-03-04T22:42:17.975Z,20.50
2023-03-04T22:45:01.887Z,19.57
2023-03-04T22:47:52.304Z,22.67
2023-03-04T22:50:36.854Z,26.97
2023-03-04T22:53:20.692Z,25.40
2023-03-04T22:56:04.769Z,24.87
2023-03-04T22:58:50.128Z,22.43
2023-03-04T23:01:33.903Z,24.40
2023-03-04T23:04:17.819Z,21.83
2023-03-04T23:07:01.597Z,21.07
2023-03-04T23:09:45.384Z,18.87
2023-03-04T23:12:29.118Z,17.97
2023-03-04T23:15:15.845Z,22.20
2023-03-04T23:18:00.126Z,16.57
2023-03-04T23:20:44.303Z,20.37
2023-03-04T23:23:28.055Z,15.00
2023-03-04T23:26:16.422Z,17.67
2023-03-04T23:29:01.551Z,20.63
2023-03-04T23:31:46.840Z,25.13
2023-03-04T23:34:31.006Z,26.07
2023-03-04T23:37:14.847Z,20.73
2023-03-04T23:39:58.583Z,16.00
2023-03-04T23:42:42.451Z,15.80
2023-03-04T23:45:26.253Z,13.60
2023-03-04T23:48:11.396Z,13.83
2023-03-04T23:50:55.442Z,15.17
2023-03-04T23:53:40.039Z,13.87
2023-03-04T23:56:25.393Z,13.57
2023-03-04T23:59:09.119Z,14.50
